WMT769 LIPZ-EPWA
Flight info
| Callsign | WMT769 |
|---|---|
| Flight time | 1h 25m |
| Altitude | 37000 |
| Route | ROSKA M859 BARPI DCT LAPNA DCT GOLVA DCT LEDVA DCT NETIR DCT ORTEB DCT KONZI DCT LOGDA |
| Aircraft | A321/M-SDE1E2E3FGIJ1J4RWXY/LB1 |
Departure
| Time | 2026-05-07 15:31 |
|---|---|
| Airport | Venice Marco Polo Airport (LIPZ) |
Arrival
| Time | 2026-05-07 16:56 |
|---|---|
| Airport | Warsaw Chopin Airport (EPWA) |
| Time | Latitude | Longitude | Altitude | Speed | Heading |
|---|---|---|---|---|---|
| 2026-05-07 15:02 | 45.50180 | 12.34068 | 16 ft | 0 kts | 314° |
| 2026-05-07 15:23 | 45.50176 | 12.34075 | 16 ft | 4 kts | 314° |
| 2026-05-07 15:23 | 45.50157 | 12.34103 | 16 ft | 4 kts | 313° |
| 2026-05-07 15:24 | 45.50140 | 12.34129 | 18 ft | 4 kts | 315° |
| 2026-05-07 15:24 | 45.50124 | 12.34142 | 16 ft | 4 kts | 31° |
| 2026-05-07 15:24 | 45.50106 | 12.34116 | 16 ft | 4 kts | 52° |
| 2026-05-07 15:24 | 45.50095 | 12.34097 | 16 ft | 1 kts | 42° |
| 2026-05-07 15:25 | 45.50093 | 12.34094 | 16 ft | 0 kts | 42° |
| 2026-05-07 15:27 | 45.50113 | 12.34120 | 16 ft | 8 kts | 42° |
| 2026-05-07 15:28 | 45.50151 | 12.34183 | 16 ft | 9 kts | 75° |
| 2026-05-07 15:28 | 45.50150 | 12.34269 | 16 ft | 10 kts | 90° |
| 2026-05-07 15:28 | 45.50140 | 12.34362 | 18 ft | 8 kts | 139° |
| 2026-05-07 15:28 | 45.50097 | 12.34310 | 16 ft | 12 kts | 228° |
| 2026-05-07 15:29 | 45.50013 | 12.34197 | 14 ft | 21 kts | 221° |
| 2026-05-07 15:29 | 45.49882 | 12.34038 | 16 ft | 27 kts | 221° |
| 2026-05-07 15:29 | 45.49744 | 12.33850 | 16 ft | 27 kts | 220° |
| 2026-05-07 15:29 | 45.49603 | 12.33675 | 16 ft | 27 kts | 221° |
| 2026-05-07 15:30 | 45.49540 | 12.33597 | 17 ft | 8 kts | 217° |
| 2026-05-07 15:30 | 45.49483 | 12.33631 | 17 ft | 12 kts | 137° |
| 2026-05-07 15:30 | 45.49431 | 12.33731 | 18 ft | 13 kts | 118° |
| 2026-05-07 15:30 | 45.49473 | 12.33855 | 15 ft | 21 kts | 41° |
| 2026-05-07 15:31 | 45.49786 | 12.34260 | 14 ft | 99 kts | 42° |
| 2026-05-07 15:31 | 45.50467 | 12.35134 | 15 ft | 161 kts | 42° |
| 2026-05-07 15:31 | 45.51331 | 12.36244 | 628 ft | 159 kts | 45° |
| 2026-05-07 15:31 | 45.52123 | 12.37322 | 1415 ft | 158 kts | 45° |
| 2026-05-07 15:32 | 45.52908 | 12.38414 | 1995 ft | 162 kts | 45° |
| 2026-05-07 15:32 | 45.53562 | 12.39803 | 2388 ft | 178 kts | 73° |
| 2026-05-07 15:32 | 45.53637 | 12.41598 | 2848 ft | 187 kts | 103° |
| 2026-05-07 15:32 | 45.53075 | 12.43298 | 3335 ft | 196 kts | 126° |
| 2026-05-07 15:33 | 45.52249 | 12.44994 | 3682 ft | 221 kts | 128° |
| 2026-05-07 15:33 | 45.51277 | 12.46846 | 4089 ft | 245 kts | 128° |
| 2026-05-07 15:33 | 45.50204 | 12.48890 | 4532 ft | 267 kts | 128° |
| 2026-05-07 15:33 | 45.49259 | 12.51201 | 5231 ft | 277 kts | 110° |
| 2026-05-07 15:34 | 45.49032 | 12.53941 | 6006 ft | 283 kts | 84° |
| 2026-05-07 15:34 | 45.49296 | 12.56722 | 6833 ft | 285 kts | 82° |
| 2026-05-07 15:34 | 45.49586 | 12.59545 | 7616 ft | 289 kts | 82° |
| 2026-05-07 15:34 | 45.49882 | 12.62403 | 8391 ft | 294 kts | 82° |
| 2026-05-07 15:35 | 45.50179 | 12.65306 | 9172 ft | 298 kts | 82° |
| 2026-05-07 15:35 | 45.50480 | 12.68253 | 9938 ft | 303 kts | 82° |
| 2026-05-07 15:35 | 45.50789 | 12.71294 | 10366 ft | 320 kts | 82° |
| 2026-05-07 15:35 | 45.51117 | 12.74554 | 10592 ft | 343 kts | 82° |
| 2026-05-07 15:36 | 45.51456 | 12.77966 | 11129 ft | 352 kts | 82° |
| 2026-05-07 15:36 | 45.51802 | 12.81446 | 11809 ft | 357 kts | 82° |
| 2026-05-07 15:36 | 45.52143 | 12.84921 | 12499 ft | 361 kts | 82° |
| 2026-05-07 15:36 | 45.52490 | 12.88490 | 13204 ft | 365 kts | 82° |
| 2026-05-07 15:37 | 45.52843 | 12.92103 | 13881 ft | 370 kts | 82° |
| 2026-05-07 15:37 | 45.53200 | 12.95747 | 14479 ft | 374 kts | 82° |
| 2026-05-07 15:37 | 45.53562 | 12.99456 | 15040 ft | 380 kts | 82° |
| 2026-05-07 15:37 | 45.53928 | 13.03206 | 15645 ft | 384 kts | 82° |
| 2026-05-07 15:38 | 45.54296 | 13.07005 | 16268 ft | 389 kts | 82° |
| 2026-05-07 15:38 | 45.54666 | 13.10848 | 16895 ft | 393 kts | 82° |
| 2026-05-07 15:38 | 45.55040 | 13.14729 | 17513 ft | 397 kts | 82° |
| 2026-05-07 15:38 | 45.55418 | 13.18657 | 18133 ft | 402 kts | 82° |
| 2026-05-07 15:39 | 45.55796 | 13.22626 | 18677 ft | 406 kts | 82° |
| 2026-05-07 15:39 | 45.56176 | 13.26638 | 19194 ft | 410 kts | 82° |
| 2026-05-07 15:39 | 45.56559 | 13.30694 | 19715 ft | 415 kts | 82° |
| 2026-05-07 15:39 | 45.56949 | 13.34803 | 20239 ft | 420 kts | 82° |
| 2026-05-07 15:40 | 45.57341 | 13.38947 | 20735 ft | 425 kts | 83° |
| 2026-05-07 15:40 | 45.57734 | 13.43155 | 21224 ft | 430 kts | 83° |
| 2026-05-07 15:40 | 45.58148 | 13.47399 | 21740 ft | 435 kts | 80° |
| 2026-05-07 15:40 | 45.58939 | 13.51594 | 22239 ft | 440 kts | 69° |
| 2026-05-07 15:41 | 45.60249 | 13.55567 | 22731 ft | 444 kts | 58° |
| 2026-05-07 15:41 | 45.61979 | 13.59224 | 23205 ft | 448 kts | 53° |
| 2026-05-07 15:41 | 45.63788 | 13.62875 | 23665 ft | 452 kts | 53° |
| 2026-05-07 15:41 | 45.65610 | 13.66568 | 24063 ft | 456 kts | 53° |
| 2026-05-07 15:42 | 45.67443 | 13.70297 | 24475 ft | 460 kts | 53° |
| 2026-05-07 15:42 | 45.69285 | 13.74053 | 24882 ft | 463 kts | 53° |
| 2026-05-07 15:42 | 45.71137 | 13.77842 | 25296 ft | 466 kts | 53° |
| 2026-05-07 15:42 | 45.72998 | 13.81663 | 25728 ft | 469 kts | 53° |
| 2026-05-07 15:43 | 45.74863 | 13.85504 | 26216 ft | 470 kts | 53° |
| 2026-05-07 15:43 | 45.76733 | 13.89365 | 26522 ft | 475 kts | 54° |
| 2026-05-07 15:43 | 45.78624 | 13.93271 | 26854 ft | 479 kts | 54° |
| 2026-05-07 15:43 | 45.80530 | 13.97208 | 27201 ft | 483 kts | 54° |
| 2026-05-07 15:44 | 45.82454 | 14.01177 | 27599 ft | 486 kts | 54° |
| 2026-05-07 15:44 | 45.84385 | 14.05167 | 27979 ft | 489 kts | 54° |
| 2026-05-07 15:44 | 45.86333 | 14.09193 | 28352 ft | 492 kts | 53° |
| 2026-05-07 15:44 | 45.88287 | 14.13240 | 28722 ft | 495 kts | 54° |
| 2026-05-07 15:45 | 45.90247 | 14.17310 | 29093 ft | 497 kts | 54° |
| 2026-05-07 15:45 | 45.92189 | 14.21352 | 29415 ft | 500 kts | 54° |
| 2026-05-07 15:45 | 45.94168 | 14.25478 | 29726 ft | 503 kts | 54° |
| 2026-05-07 15:45 | 45.96159 | 14.29623 | 30033 ft | 506 kts | 54° |
| 2026-05-07 15:46 | 46.00174 | 14.37996 | 30630 ft | 511 kts | 54° |
| 2026-05-07 15:46 | 46.02191 | 14.42216 | 30894 ft | 513 kts | 54° |
| 2026-05-07 15:46 | 46.04221 | 14.46473 | 31180 ft | 516 kts | 54° |
| 2026-05-07 15:47 | 46.06249 | 14.50735 | 31515 ft | 518 kts | 55° |
| 2026-05-07 15:47 | 46.08278 | 14.55010 | 31926 ft | 516 kts | 55° |
| 2026-05-07 15:47 | 46.10302 | 14.59279 | 32348 ft | 515 kts | 55° |
| 2026-05-07 15:47 | 46.12318 | 14.63540 | 32752 ft | 515 kts | 55° |
| 2026-05-07 15:48 | 46.14309 | 14.67754 | 33158 ft | 514 kts | 55° |
| 2026-05-07 15:48 | 46.16345 | 14.72074 | 33562 ft | 513 kts | 55° |
| 2026-05-07 15:48 | 46.18346 | 14.76327 | 33954 ft | 513 kts | 55° |
| 2026-05-07 15:48 | 46.20321 | 14.80524 | 34286 ft | 512 kts | 55° |
| 2026-05-07 15:49 | 46.22319 | 14.84770 | 34657 ft | 510 kts | 55° |
| 2026-05-07 15:49 | 46.24307 | 14.88997 | 35046 ft | 508 kts | 55° |
| 2026-05-07 15:49 | 46.26292 | 14.93220 | 35433 ft | 506 kts | 55° |
| 2026-05-07 15:49 | 46.28263 | 14.97421 | 35751 ft | 505 kts | 55° |
| 2026-05-07 15:50 | 46.30234 | 15.01629 | 36052 ft | 504 kts | 55° |
| 2026-05-07 15:50 | 46.32196 | 15.05829 | 36338 ft | 504 kts | 55° |
| 2026-05-07 15:50 | 46.34151 | 15.10027 | 36664 ft | 503 kts | 55° |
| 2026-05-07 15:50 | 46.36102 | 15.14230 | 36892 ft | 503 kts | 55° |
| 2026-05-07 15:51 | 46.38032 | 15.18393 | 36945 ft | 500 kts | 56° |
| 2026-05-07 15:51 | 46.41869 | 15.26676 | 36938 ft | 497 kts | 56° |
| 2026-05-07 15:52 | 46.45716 | 15.34995 | 36937 ft | 496 kts | 55° |
| 2026-05-07 15:52 | 46.48896 | 15.41899 | 36941 ft | 496 kts | 56° |
| 2026-05-07 15:53 | 46.53060 | 15.49853 | 36940 ft | 493 kts | 43° |
| 2026-05-07 15:53 | 46.58506 | 15.55801 | 36944 ft | 488 kts | 25° |
| 2026-05-07 15:54 | 46.64516 | 15.60356 | 36947 ft | 487 kts | 24° |
| 2026-05-07 15:54 | 46.70533 | 15.64906 | 36946 ft | 487 kts | 21° |
| 2026-05-07 15:55 | 46.76825 | 15.68439 | 36951 ft | 485 kts | 17° |
| 2026-05-07 15:55 | 46.83154 | 15.71865 | 36943 ft | 485 kts | 17° |
| 2026-05-07 15:56 | 46.89489 | 15.75304 | 36941 ft | 486 kts | 17° |
| 2026-05-07 15:56 | 46.95829 | 15.78757 | 36950 ft | 486 kts | 17° |
| 2026-05-07 15:57 | 47.02177 | 15.82227 | 36947 ft | 487 kts | 17° |
| 2026-05-07 15:57 | 47.08520 | 15.85704 | 36952 ft | 487 kts | 17° |
| 2026-05-07 15:58 | 47.14879 | 15.89195 | 36964 ft | 488 kts | 18° |
| 2026-05-07 15:58 | 47.21242 | 15.92690 | 36968 ft | 488 kts | 18° |
| 2026-05-07 15:59 | 47.27597 | 15.96195 | 36974 ft | 488 kts | 18° |
| 2026-05-07 15:59 | 47.33971 | 15.99722 | 36985 ft | 489 kts | 18° |
| 2026-05-07 16:00 | 47.40301 | 16.03227 | 36980 ft | 489 kts | 18° |
| 2026-05-07 16:00 | 47.46678 | 16.06771 | 36984 ft | 490 kts | 18° |
| 2026-05-07 16:01 | 47.53057 | 16.10332 | 37000 ft | 490 kts | 18° |
| 2026-05-07 16:01 | 47.59438 | 16.13905 | 36992 ft | 490 kts | 18° |
| 2026-05-07 16:02 | 47.65817 | 16.17486 | 36991 ft | 490 kts | 18° |
| 2026-05-07 16:02 | 47.72203 | 16.21060 | 36996 ft | 490 kts | 18° |
| 2026-05-07 16:03 | 47.78588 | 16.24642 | 36986 ft | 490 kts | 18° |
| 2026-05-07 16:03 | 47.84960 | 16.28246 | 36993 ft | 490 kts | 18° |
| 2026-05-07 16:04 | 47.91323 | 16.31858 | 37000 ft | 490 kts | 18° |
| 2026-05-07 16:04 | 47.97695 | 16.35473 | 37005 ft | 490 kts | 18° |
| 2026-05-07 16:05 | 48.04057 | 16.39096 | 37003 ft | 489 kts | 18° |
| 2026-05-07 16:05 | 48.10415 | 16.42722 | 37000 ft | 489 kts | 18° |
| 2026-05-07 16:06 | 48.16769 | 16.46361 | 37005 ft | 489 kts | 19° |
| 2026-05-07 16:06 | 48.23112 | 16.50012 | 37005 ft | 488 kts | 19° |
| 2026-05-07 16:07 | 48.29407 | 16.53633 | 37001 ft | 488 kts | 19° |
| 2026-05-07 16:07 | 48.33584 | 16.56037 | 37011 ft | 488 kts | 19° |
| 2026-05-07 16:08 | 48.38024 | 16.58592 | 36995 ft | 487 kts | 19° |
| 2026-05-07 16:08 | 48.42161 | 16.60981 | 36991 ft | 487 kts | 19° |
| 2026-05-07 16:09 | 48.48490 | 16.64661 | 36992 ft | 487 kts | 19° |
| 2026-05-07 16:09 | 48.52750 | 16.67142 | 36986 ft | 487 kts | 19° |
| 2026-05-07 16:10 | 48.58817 | 16.70675 | 36986 ft | 487 kts | 19° |
| 2026-05-07 16:10 | 48.65148 | 16.74363 | 36989 ft | 487 kts | 19° |
| 2026-05-07 16:11 | 48.69154 | 16.76874 | 36978 ft | 488 kts | 26° |
| 2026-05-07 16:11 | 48.74629 | 16.82763 | 36971 ft | 488 kts | 45° |
| 2026-05-07 16:12 | 48.78988 | 16.90650 | 36965 ft | 488 kts | 53° |
| 2026-05-07 16:12 | 48.83215 | 16.98801 | 36963 ft | 488 kts | 53° |
| 2026-05-07 16:13 | 48.87380 | 17.06848 | 36967 ft | 489 kts | 53° |
| 2026-05-07 16:13 | 48.91571 | 17.14982 | 36974 ft | 489 kts | 53° |
| 2026-05-07 16:14 | 48.95753 | 17.23138 | 36973 ft | 489 kts | 53° |
| 2026-05-07 16:14 | 48.99937 | 17.31319 | 36975 ft | 489 kts | 53° |
| 2026-05-07 16:15 | 49.04116 | 17.39498 | 36974 ft | 489 kts | 53° |
| 2026-05-07 16:15 | 49.08297 | 17.47698 | 36974 ft | 490 kts | 54° |
| 2026-05-07 16:16 | 49.12468 | 17.55919 | 36977 ft | 490 kts | 54° |
| 2026-05-07 16:16 | 49.16629 | 17.64145 | 36981 ft | 490 kts | 54° |
| 2026-05-07 16:17 | 49.20790 | 17.72386 | 36979 ft | 489 kts | 54° |
| 2026-05-07 16:17 | 49.24935 | 17.80633 | 36977 ft | 489 kts | 54° |
| 2026-05-07 16:18 | 49.29070 | 17.88900 | 36980 ft | 489 kts | 54° |
| 2026-05-07 16:18 | 49.33200 | 17.97167 | 36976 ft | 488 kts | 54° |
| 2026-05-07 16:19 | 49.36870 | 18.04527 | 36973 ft | 488 kts | 54° |
| 2026-05-07 16:19 | 49.38887 | 18.08581 | 36974 ft | 488 kts | 54° |
| 2026-05-07 16:20 | 49.41658 | 18.14172 | 36952 ft | 488 kts | 54° |
| 2026-05-07 16:21 | 49.43020 | 18.16939 | 36953 ft | 488 kts | 55° |
| 2026-05-07 16:21 | 49.47126 | 18.25262 | 36961 ft | 489 kts | 55° |
| 2026-05-07 16:22 | 49.51238 | 18.33587 | 36969 ft | 489 kts | 55° |
| 2026-05-07 16:22 | 49.55349 | 18.41928 | 36977 ft | 489 kts | 55° |
| 2026-05-07 16:23 | 49.59451 | 18.50301 | 36979 ft | 489 kts | 55° |
| 2026-05-07 16:23 | 49.63540 | 18.58684 | 36982 ft | 489 kts | 55° |
| 2026-05-07 16:24 | 49.67616 | 18.67084 | 36980 ft | 489 kts | 57° |
| 2026-05-07 16:24 | 49.70708 | 18.76301 | 36983 ft | 481 kts | 74° |
| 2026-05-07 16:25 | 49.72913 | 18.86058 | 36952 ft | 481 kts | 74° |
| 2026-05-07 16:25 | 49.75139 | 18.95822 | 36960 ft | 482 kts | 74° |
| 2026-05-07 16:26 | 49.77355 | 19.05611 | 36980 ft | 482 kts | 74° |
| 2026-05-07 16:26 | 49.79556 | 19.15417 | 36985 ft | 482 kts | 75° |
| 2026-05-07 16:27 | 49.81749 | 19.25237 | 36990 ft | 483 kts | 75° |
| 2026-05-07 16:27 | 49.84115 | 19.34883 | 36991 ft | 486 kts | 63° |
| 2026-05-07 16:27 | 49.86093 | 19.39141 | 36989 ft | 489 kts | 49° |
| 2026-05-07 16:28 | 49.88378 | 19.43058 | 36955 ft | 489 kts | 49° |
| 2026-05-07 16:28 | 49.92968 | 19.50842 | 36974 ft | 489 kts | 49° |
| 2026-05-07 16:29 | 49.97555 | 19.58663 | 36981 ft | 489 kts | 49° |
| 2026-05-07 16:29 | 50.02105 | 19.66472 | 36982 ft | 489 kts | 49° |
| 2026-05-07 16:30 | 50.06635 | 19.74258 | 36992 ft | 489 kts | 49° |
| 2026-05-07 16:30 | 50.11194 | 19.82109 | 36992 ft | 489 kts | 49° |
| 2026-05-07 16:31 | 50.15749 | 19.89981 | 37000 ft | 489 kts | 49° |
| 2026-05-07 16:31 | 50.20296 | 19.97856 | 36996 ft | 488 kts | 49° |
| 2026-05-07 16:32 | 50.24860 | 20.05790 | 36990 ft | 488 kts | 50° |
| 2026-05-07 16:32 | 50.29351 | 20.13642 | 36983 ft | 488 kts | 50° |
| 2026-05-07 16:32 | 50.31621 | 20.17622 | 36310 ft | 491 kts | 50° |
| 2026-05-07 16:33 | 50.33886 | 20.21589 | 35086 ft | 489 kts | 50° |
| 2026-05-07 16:33 | 50.36279 | 20.25306 | 33765 ft | 490 kts | 37° |
| 2026-05-07 16:33 | 50.39164 | 20.28096 | 32356 ft | 487 kts | 22° |
| 2026-05-07 16:33 | 50.42334 | 20.29900 | 31108 ft | 482 kts | 17° |
| 2026-05-07 16:34 | 50.45482 | 20.31547 | 30136 ft | 472 kts | 17° |
| 2026-05-07 16:34 | 50.48554 | 20.33149 | 29328 ft | 456 kts | 17° |
| 2026-05-07 16:34 | 50.51509 | 20.34691 | 29029 ft | 444 kts | 17° |
| 2026-05-07 16:34 | 50.54422 | 20.36214 | 28575 ft | 440 kts | 17° |
| 2026-05-07 16:35 | 50.57319 | 20.37735 | 28115 ft | 438 kts | 17° |
| 2026-05-07 16:35 | 50.60195 | 20.39252 | 27668 ft | 435 kts | 17° |
| 2026-05-07 16:35 | 50.63064 | 20.40768 | 27218 ft | 432 kts | 18° |
| 2026-05-07 16:35 | 50.65902 | 20.42270 | 26781 ft | 430 kts | 17° |
| 2026-05-07 16:36 | 50.68740 | 20.43767 | 26341 ft | 428 kts | 17° |
| 2026-05-07 16:36 | 50.71558 | 20.45252 | 25912 ft | 427 kts | 17° |
| 2026-05-07 16:36 | 50.74375 | 20.46748 | 25448 ft | 427 kts | 17° |
| 2026-05-07 16:36 | 50.77186 | 20.48252 | 24993 ft | 426 kts | 17° |
| 2026-05-07 16:37 | 50.79992 | 20.49748 | 24528 ft | 425 kts | 17° |
| 2026-05-07 16:37 | 50.82796 | 20.51239 | 24060 ft | 425 kts | 17° |
| 2026-05-07 16:37 | 50.85595 | 20.52732 | 23575 ft | 425 kts | 17° |
| 2026-05-07 16:37 | 50.88395 | 20.54227 | 23036 ft | 424 kts | 17° |
| 2026-05-07 16:38 | 50.91102 | 20.55676 | 22546 ft | 408 kts | 17° |
| 2026-05-07 16:38 | 50.93724 | 20.57084 | 22118 ft | 393 kts | 17° |
| 2026-05-07 16:38 | 50.95438 | 20.58005 | 21789 ft | 392 kts | 17° |
| 2026-05-07 16:38 | 50.98011 | 20.59388 | 21328 ft | 390 kts | 17° |
| 2026-05-07 16:39 | 51.00578 | 20.60769 | 20865 ft | 388 kts | 17° |
| 2026-05-07 16:39 | 51.03133 | 20.62144 | 20411 ft | 387 kts | 17° |
| 2026-05-07 16:39 | 51.05673 | 20.63510 | 19943 ft | 385 kts | 17° |
| 2026-05-07 16:39 | 51.08208 | 20.64876 | 19482 ft | 383 kts | 17° |
| 2026-05-07 16:40 | 51.10724 | 20.66232 | 19027 ft | 381 kts | 17° |
| 2026-05-07 16:40 | 51.13193 | 20.67565 | 18563 ft | 366 kts | 18° |
| 2026-05-07 16:40 | 51.15537 | 20.68833 | 18126 ft | 348 kts | 18° |
| 2026-05-07 16:40 | 51.17788 | 20.70051 | 17701 ft | 336 kts | 18° |
| 2026-05-07 16:41 | 51.19995 | 20.71246 | 17290 ft | 335 kts | 17° |
| 2026-05-07 16:41 | 51.22200 | 20.72439 | 16888 ft | 334 kts | 17° |
| 2026-05-07 16:41 | 51.24399 | 20.73631 | 16484 ft | 333 kts | 17° |
| 2026-05-07 16:41 | 51.26593 | 20.74824 | 16082 ft | 332 kts | 17° |
| 2026-05-07 16:42 | 51.28778 | 20.76011 | 15682 ft | 331 kts | 17° |
| 2026-05-07 16:42 | 51.30962 | 20.77200 | 15272 ft | 331 kts | 17° |
| 2026-05-07 16:42 | 51.33135 | 20.78388 | 14870 ft | 330 kts | 17° |
| 2026-05-07 16:42 | 51.35307 | 20.79575 | 14473 ft | 330 kts | 17° |
| 2026-05-07 16:43 | 51.37480 | 20.80764 | 14071 ft | 329 kts | 17° |
| 2026-05-07 16:43 | 51.39646 | 20.81946 | 13670 ft | 329 kts | 17° |
| 2026-05-07 16:43 | 51.41783 | 20.83115 | 13248 ft | 328 kts | 17° |
| 2026-05-07 16:43 | 51.43936 | 20.84297 | 12845 ft | 326 kts | 17° |
| 2026-05-07 16:44 | 51.46075 | 20.85474 | 12459 ft | 324 kts | 17° |
| 2026-05-07 16:44 | 51.48198 | 20.86639 | 12069 ft | 322 kts | 17° |
| 2026-05-07 16:44 | 51.50318 | 20.87801 | 11671 ft | 321 kts | 17° |
| 2026-05-07 16:44 | 51.52397 | 20.88941 | 11293 ft | 319 kts | 17° |
| 2026-05-07 16:45 | 51.54512 | 20.90105 | 10999 ft | 314 kts | 17° |
| 2026-05-07 16:45 | 51.56573 | 20.91241 | 10614 ft | 313 kts | 17° |
| 2026-05-07 16:45 | 51.58622 | 20.92372 | 10214 ft | 312 kts | 17° |
| 2026-05-07 16:45 | 51.60629 | 20.93479 | 9931 ft | 307 kts | 16° |
| 2026-05-07 16:46 | 51.62653 | 20.94593 | 9570 ft | 305 kts | 17° |
| 2026-05-07 16:46 | 51.64643 | 20.95692 | 9094 ft | 298 kts | 16° |
| 2026-05-07 16:46 | 51.66558 | 20.96756 | 8667 ft | 283 kts | 16° |
| 2026-05-07 16:46 | 51.68387 | 20.97775 | 8329 ft | 278 kts | 16° |
| 2026-05-07 16:47 | 51.70239 | 20.98805 | 7975 ft | 277 kts | 16° |
| 2026-05-07 16:47 | 51.72036 | 20.99801 | 7639 ft | 276 kts | 16° |
| 2026-05-07 16:47 | 51.73850 | 21.00808 | 7299 ft | 275 kts | 16° |
| 2026-05-07 16:47 | 51.75660 | 21.01815 | 6961 ft | 275 kts | 16° |
| 2026-05-07 16:48 | 51.77464 | 21.02820 | 6629 ft | 274 kts | 16° |
| 2026-05-07 16:48 | 51.79267 | 21.03824 | 6282 ft | 274 kts | 16° |
| 2026-05-07 16:48 | 51.81070 | 21.04825 | 5928 ft | 273 kts | 17° |
| 2026-05-07 16:48 | 51.82865 | 21.05827 | 5583 ft | 272 kts | 17° |
| 2026-05-07 16:49 | 51.84652 | 21.06827 | 5240 ft | 271 kts | 17° |
| 2026-05-07 16:49 | 51.86430 | 21.07822 | 4899 ft | 270 kts | 17° |
| 2026-05-07 16:49 | 51.88207 | 21.08818 | 4552 ft | 269 kts | 18° |
| 2026-05-07 16:49 | 51.89969 | 21.09808 | 4209 ft | 268 kts | 17° |
| 2026-05-07 16:50 | 51.91709 | 21.10784 | 4010 ft | 260 kts | 16° |
| 2026-05-07 16:50 | 51.93374 | 21.11718 | 3933 ft | 244 kts | 17° |
| 2026-05-07 16:50 | 51.94886 | 21.12573 | 3889 ft | 219 kts | 16° |
| 2026-05-07 16:50 | 51.96321 | 21.13078 | 3807 ft | 207 kts | 359° |
| 2026-05-07 16:51 | 51.97728 | 21.12838 | 3713 ft | 199 kts | 339° |
| 2026-05-07 16:51 | 51.98989 | 21.11967 | 3630 ft | 196 kts | 332° |
| 2026-05-07 16:51 | 52.00193 | 21.10959 | 3569 ft | 195 kts | 330° |
| 2026-05-07 16:51 | 52.01367 | 21.09947 | 3460 ft | 184 kts | 330° |
| 2026-05-07 16:52 | 52.02455 | 21.09006 | 3263 ft | 170 kts | 330° |
| 2026-05-07 16:52 | 52.03453 | 21.08140 | 3056 ft | 158 kts | 330° |
| 2026-05-07 16:52 | 52.04400 | 21.07318 | 2869 ft | 148 kts | 330° |
| 2026-05-07 16:52 | 52.05276 | 21.06557 | 2663 ft | 139 kts | 330° |
| 2026-05-07 16:53 | 52.06120 | 21.05823 | 2472 ft | 137 kts | 331° |
| 2026-05-07 16:53 | 52.06958 | 21.05094 | 2294 ft | 138 kts | 332° |
| 2026-05-07 16:53 | 52.07793 | 21.04368 | 2116 ft | 135 kts | 332° |
| 2026-05-07 16:53 | 52.08621 | 21.03648 | 1927 ft | 136 kts | 333° |
| 2026-05-07 16:54 | 52.09448 | 21.02928 | 1747 ft | 134 kts | 333° |
| 2026-05-07 16:54 | 52.10267 | 21.02215 | 1558 ft | 134 kts | 333° |
| 2026-05-07 16:54 | 52.11089 | 21.01499 | 1381 ft | 134 kts | 333° |
| 2026-05-07 16:54 | 52.11911 | 21.00785 | 1195 ft | 134 kts | 333° |
| 2026-05-07 16:55 | 52.12731 | 21.00065 | 1025 ft | 133 kts | 333° |
| 2026-05-07 16:55 | 52.13548 | 20.99353 | 845 ft | 132 kts | 333° |
| 2026-05-07 16:55 | 52.14347 | 20.98643 | 670 ft | 131 kts | 333° |
| 2026-05-07 16:55 | 52.15138 | 20.97958 | 453 ft | 131 kts | 334° |
| 2026-05-07 16:56 | 52.15924 | 20.97274 | 347 ft | 119 kts | 334° |
| 2026-05-07 16:56 | 52.16548 | 20.96737 | 337 ft | 82 kts | 332° |
| 2026-05-07 16:56 | 52.17231 | 20.96235 | 336 ft | 30 kts | 1° |
| 2026-05-07 16:57 | 52.17371 | 20.96250 | 338 ft | 5 kts | 20° |
| 2026-05-07 16:57 | 52.17372 | 20.96250 | 338 ft | 0 kts | 21° |
| 2026-05-07 16:57 | 52.17377 | 20.96254 | 337 ft | 2 kts | 22° |
| 2026-05-07 16:57 | 52.17394 | 20.96275 | 339 ft | 5 kts | 48° |
| 2026-05-07 16:58 | 52.17434 | 20.96386 | 339 ft | 16 kts | 62° |
| 2026-05-07 16:58 | 52.17466 | 20.96561 | 334 ft | 17 kts | 110° |
| 2026-05-07 16:58 | 52.17365 | 20.96662 | 335 ft | 18 kts | 153° |
| 2026-05-07 16:58 | 52.17246 | 20.96759 | 337 ft | 20 kts | 153° |
| 2026-05-07 16:59 | 52.17125 | 20.96869 | 337 ft | 20 kts | 152° |
| 2026-05-07 16:59 | 52.17062 | 20.96920 | 338 ft | 4 kts | 173° |
| 2026-05-07 16:59 | 52.17044 | 20.96874 | 336 ft | 7 kts | 251° |
| 2026-05-07 16:59 | 52.17047 | 20.96798 | 339 ft | 0 kts | 277° |